createdAt,value
2019-02-17T11:40:47.015Z,30.23
2019-02-17T11:50:52.832Z,28.87
2019-02-17T12:00:59.053Z,34.50
2019-02-17T12:11:05.251Z,23.32
2019-02-17T12:21:12.684Z,31.37
2019-02-17T12:41:25.125Z,20.17
2019-02-17T12:51:30.975Z,27.22
2019-02-17T13:01:37.096Z,29.32
2019-02-17T13:11:43.174Z,25.12
2019-02-17T13:21:49.415Z,35.45
2019-02-17T13:31:55.334Z,111.95
2019-02-17T13:42:01.167Z,243.00
2019-02-17T13:52:06.995Z,172.80
2019-02-17T14:02:12.831Z,115.30
2019-02-17T14:12:18.724Z,83.52
2019-02-17T14:22:24.639Z,73.55
2019-02-17T14:32:30.526Z,64.80
2019-02-17T14:42:36.402Z,56.65
2019-02-17T14:52:42.239Z,56.42
2019-02-17T15:02:48.088Z,46.75
2019-02-17T15:12:53.944Z,33.25
2019-02-17T15:22:59.870Z,42.05
2019-02-17T15:53:15.854Z,29.70
2019-02-17T16:03:21.766Z,22.35
2019-02-17T16:13:27.665Z,18.12
2019-02-17T16:23:33.459Z,27.93
2019-02-17T16:33:39.213Z,22.07
2019-02-17T16:43:45.063Z,25.27
2019-02-17T16:53:50.844Z,24.15
2019-02-17T17:03:56.728Z,29.12
2019-02-17T17:14:08.788Z,23.15
2019-02-17T17:24:11.078Z,22.27
2019-02-17T17:34:16.975Z,34.05
2019-02-17T17:44:22.928Z,25.72
2019-02-17T17:54:28.934Z,25.00
2019-02-17T18:14:39.656Z,31.33
2019-02-17T18:24:45.522Z,31.33
2019-02-17T18:34:51.356Z,29.70
2019-02-17T18:44:57.188Z,57.60
2019-02-17T18:55:03.192Z,43.35
2019-02-17T19:05:11.821Z,43.85
2019-02-17T19:15:22.967Z,35.00
2019-02-17T19:25:28.892Z,37.30
2019-02-17T19:35:41.537Z,33.85
2019-02-17T19:45:42.508Z,39.90
2019-02-17T19:55:48.395Z,50.75
2019-02-17T20:06:02.494Z,53.08
2019-02-17T20:16:08.428Z,49.20
2019-02-17T20:26:14.398Z,45.35
2019-02-17T20:36:20.237Z,49.20
2019-02-17T20:46:26.054Z,46.00
